sensor_id;sensor_type;location;lat;lon;timestamp;temperature;humidity
2050;DHT22;8478;49.208;8.806;2023-05-07T00:02:22;16.10;99.90
2050;DHT22;8478;49.208;8.806;2023-05-07T00:04:48;16.10;99.90
2050;DHT22;8478;49.208;8.806;2023-05-07T00:07:14;16.10;99.90
2050;DHT22;8478;49.208;8.806;2023-05-07T00:09:40;16.10;99.90
2050;DHT22;8478;49.208;8.806;2023-05-07T00:12:07;16.10;99.90
2050;DHT22;8478;49.208;8.806;2023-05-07T00:14:32;16.10;99.90
2050;DHT22;8478;49.208;8.806;2023-05-07T00:16:58;16.10;99.90
2050;DHT22;8478;49.208;8.806;2023-05-07T00:19:24;16.10;99.90
2050;DHT22;8478;49.208;8.806;2023-05-07T00:21:49;16.10;99.90
2050;DHT22;8478;49.208;8.806;2023-05-07T00:24:15;16.10;99.90
2050;DHT22;8478;49.208;8.806;2023-05-07T00:26:41;16.10;99.90
2050;DHT22;8478;49.208;8.806;2023-05-07T00:29:07;16.10;99.90
2050;DHT22;8478;49.208;8.806;2023-05-07T00:31:32;16.00;99.90
2050;DHT22;8478;49.208;8.806;2023-05-07T00:33:58;16.00;99.90
2050;DHT22;8478;49.208;8.806;2023-05-07T00:36:24;16.00;99.90
2050;DHT22;8478;49.208;8.806;2023-05-07T00:38:50;16.00;99.90
2050;DHT22;8478;49.208;8.806;2023-05-07T00:41:16;16.00;99.90
2050;DHT22;8478;49.208;8.806;2023-05-07T00:43:42;16.00;99.90
2050;DHT22;8478;49.208;8.806;2023-05-07T00:46:07;16.00;99.90
2050;DHT22;8478;49.208;8.806;2023-05-07T00:48:33;16.00;99.90
2050;DHT22;8478;49.208;8.806;2023-05-07T00:50:59;16.00;99.90
2050;DHT22;8478;49.208;8.806;2023-05-07T00:53:24;16.00;99.90
2050;DHT22;8478;49.208;8.806;2023-05-07T00:55:50;16.00;99.90
2050;DHT22;8478;49.208;8.806;2023-05-07T00:58:16;16.00;99.90
2050;DHT22;8478;49.208;8.806;2023-05-07T01:00:42;16.00;99.90
2050;DHT22;8478;49.208;8.806;2023-05-07T01:03:08;16.00;99.90
2050;DHT22;8478;49.208;8.806;2023-05-07T01:05:34;16.00;99.90
2050;DHT22;8478;49.208;8.806;2023-05-07T01:08:01;16.00;99.90
2050;DHT22;8478;49.208;8.806;2023-05-07T01:10:28;16.00;99.90
2050;DHT22;8478;49.208;8.806;2023-05-07T01:12:57;16.00;99.90
2050;DHT22;8478;49.208;8.806;2023-05-07T01:15:23;16.00;99.90
2050;DHT22;8478;49.208;8.806;2023-05-07T01:17:49;16.00;99.90
2050;DHT22;8478;49.208;8.806;2023-05-07T01:20:14;16.00;99.90
2050;DHT22;8478;49.208;8.806;2023-05-07T01:22:43;16.00;99.90
2050;DHT22;8478;49.208;8.806;2023-05-07T01:25:08;15.90;99.90
2050;DHT22;8478;49.208;8.806;2023-05-07T01:27:34;15.90;99.90
2050;DHT22;8478;49.208;8.806;2023-05-07T01:30:02;16.00;99.90
2050;DHT22;8478;49.208;8.806;2023-05-07T01:35:00;16.00;99.90
2050;DHT22;8478;49.208;8.806;2023-05-07T01:37:26;15.90;99.90
2050;DHT22;8478;49.208;8.806;2023-05-07T01:39:52;15.90;99.90
2050;DHT22;8478;49.208;8.806;2023-05-07T01:42:19;15.90;99.90
2050;DHT22;8478;49.208;8.806;2023-05-07T01:44:45;15.90;99.90
2050;DHT22;8478;49.208;8.806;2023-05-07T01:47:12;15.90;99.90
2050;DHT22;8478;49.208;8.806;2023-05-07T01:49:38;15.90;99.90
2050;DHT22;8478;49.208;8.806;2023-05-07T01:52:04;15.90;99.90
2050;DHT22;8478;49.208;8.806;2023-05-07T01:54:30;15.90;99.90
2050;DHT22;8478;49.208;8.806;2023-05-07T01:56:59;15.90;99.90
2050;DHT22;8478;49.208;8.806;2023-05-07T01:59:25;15.90;99.90
2050;DHT22;8478;49.208;8.806;2023-05-07T02:01:51;15.90;99.90
2050;DHT22;8478;49.208;8.806;2023-05-07T02:04:17;15.90;99.90
2050;DHT22;8478;49.208;8.806;2023-05-07T02:06:43;15.90;99.90
2050;DHT22;8478;49.208;8.806;2023-05-07T02:09:08;15.90;99.90
2050;DHT22;8478;49.208;8.806;2023-05-07T02:11:34;15.90;99.90
2050;DHT22;8478;49.208;8.806;2023-05-07T02:14:00;15.90;99.90
2050;DHT22;8478;49.208;8.806;2023-05-07T02:16:26;15.90;99.90
2050;DHT22;8478;49.208;8.806;2023-05-07T02:18:51;15.90;99.90
2050;DHT22;8478;49.208;8.806;2023-05-07T02:21:17;15.90;99.90
2050;DHT22;8478;49.208;8.806;2023-05-07T02:23:43;15.90;99.90
2050;DHT22;8478;49.208;8.806;2023-05-07T02:26:08;15.90;99.90
2050;DHT22;8478;49.208;8.806;2023-05-07T02:28:34;15.90;99.90
2050;DHT22;8478;49.208;8.806;2023-05-07T02:31:03;15.90;99.90
2050;DHT22;8478;49.208;8.806;2023-05-07T02:33:28;15.90;99.90
2050;DHT22;8478;49.208;8.806;2023-05-07T02:35:54;15.90;99.90
2050;DHT22;8478;49.208;8.806;2023-05-07T02:38:20;15.90;99.90
2050;DHT22;8478;49.208;8.806;2023-05-07T02:40:45;15.90;99.90
2050;DHT22;8478;49.208;8.806;2023-05-07T02:43:11;15.90;99.90
2050;DHT22;8478;49.208;8.806;2023-05-07T02:45:37;15.90;99.90
2050;DHT22;8478;49.208;8.806;2023-05-07T02:48:03;15.80;99.90
2050;DHT22;8478;49.208;8.806;2023-05-07T02:50:29;15.80;99.90
2050;DHT22;8478;49.208;8.806;2023-05-07T02:52:55;15.80;99.90
2050;DHT22;8478;49.208;8.806;2023-05-07T02:55:21;15.80;99.90
2050;DHT22;8478;49.208;8.806;2023-05-07T02:57:46;15.90;99.90
2050;DHT22;8478;49.208;8.806;2023-05-07T03:00:14;15.80;99.90
2050;DHT22;8478;49.208;8.806;2023-05-07T03:02:40;15.80;99.90
2050;DHT22;8478;49.208;8.806;2023-05-07T03:05:06;15.80;99.90
2050;DHT22;8478;49.208;8.806;2023-05-07T03:07:32;15.80;99.90
2050;DHT22;8478;49.208;8.806;2023-05-07T03:09:57;15.80;99.90
2050;DHT22;8478;49.208;8.806;2023-05-07T03:12:23;15.80;99.90
2050;DHT22;8478;49.208;8.806;2023-05-07T03:14:49;15.80;99.90
2050;DHT22;8478;49.208;8.806;2023-05-07T03:17:15;15.80;99.90
2050;DHT22;8478;49.208;8.806;2023-05-07T03:19:41;15.80;99.90
2050;DHT22;8478;49.208;8.806;2023-05-07T03:22:07;15.80;99.90
2050;DHT22;8478;49.208;8.806;2023-05-07T03:24:32;15.80;99.90
2050;DHT22;8478;49.208;8.806;2023-05-07T03:26:58;15.80;99.90
2050;DHT22;8478;49.208;8.806;2023-05-07T03:29:24;15.80;99.90
2050;DHT22;8478;49.208;8.806;2023-05-07T03:31:49;15.80;99.90
2050;DHT22;8478;49.208;8.806;2023-05-07T03:34:15;15.80;99.90
2050;DHT22;8478;49.208;8.806;2023-05-07T03:36:42;15.80;99.90
2050;DHT22;8478;49.208;8.806;2023-05-07T03:39:08;15.80;99.90
2050;DHT22;8478;49.208;8.806;2023-05-07T03:41:33;15.80;99.90
2050;DHT22;8478;49.208;8.806;2023-05-07T03:43:59;15.80;99.90
2050;DHT22;8478;49.208;8.806;2023-05-07T03:46:25;15.80;99.90
2050;DHT22;8478;49.208;8.806;2023-05-07T03:48:51;15.80;99.90
2050;DHT22;8478;49.208;8.806;2023-05-07T03:51:17;15.80;99.90
2050;DHT22;8478;49.208;8.806;2023-05-07T03:53:43;15.70;99.90
2050;DHT22;8478;49.208;8.806;2023-05-07T03:56:08;15.70;99.90
2050;DHT22;8478;49.208;8.806;2023-05-07T03:58:34;15.70;99.90
2050;DHT22;8478;49.208;8.806;2023-05-07T04:01:00;15.70;99.90
2050;DHT22;8478;49.208;8.806;2023-05-07T04:03:26;15.70;99.90
2050;DHT22;8478;49.208;8.806;2023-05-07T04:05:52;15.70;99.90
2050;DHT22;8478;49.208;8.806;2023-05-07T04:08:17;15.70;99.90
2050;DHT22;8478;49.208;8.806;2023-05-07T04:10:43;15.70;99.90
2050;DHT22;8478;49.208;8.806;2023-05-07T04:13:09;15.70;99.90
2050;DHT22;8478;49.208;8.806;2023-05-07T04:15:35;15.70;99.90
2050;DHT22;8478;49.208;8.806;2023-05-07T04:18:01;15.70;99.90
2050;DHT22;8478;49.208;8.806;2023-05-07T04:20:27;15.70;99.90
2050;DHT22;8478;49.208;8.806;2023-05-07T04:22:52;15.70;99.90
2050;DHT22;8478;49.208;8.806;2023-05-07T04:25:18;15.70;99.90
2050;DHT22;8478;49.208;8.806;2023-05-07T04:27:44;15.70;99.90
2050;DHT22;8478;49.208;8.806;2023-05-07T04:30:10;15.70;99.90
2050;DHT22;8478;49.208;8.806;2023-05-07T04:32:35;15.70;99.90
2050;DHT22;8478;49.208;8.806;2023-05-07T04:35:03;15.70;99.90
2050;DHT22;8478;49.208;8.806;2023-05-07T04:37:28;15.70;99.90
2050;DHT22;8478;49.208;8.806;2023-05-07T04:39:54;15.70;99.90
2050;DHT22;8478;49.208;8.806;2023-05-07T04:42:19;15.70;99.90
2050;DHT22;8478;49.208;8.806;2023-05-07T04:44:45;15.70;99.90
2050;DHT22;8478;49.208;8.806;2023-05-07T04:47:11;15.70;99.90
2050;DHT22;8478;49.208;8.806;2023-05-07T04:49:38;15.70;99.90
2050;DHT22;8478;49.208;8.806;2023-05-07T04:52:04;15.70;99.90
2050;DHT22;8478;49.208;8.806;2023-05-07T04:54:30;15.70;99.90
2050;DHT22;8478;49.208;8.806;2023-05-07T04:56:56;15.70;99.90
2050;DHT22;8478;49.208;8.806;2023-05-07T04:59:21;15.70;99.90
2050;DHT22;8478;49.208;8.806;2023-05-07T05:01:47;15.70;99.90
2050;DHT22;8478;49.208;8.806;2023-05-07T05:04:13;15.70;99.90
2050;DHT22;8478;49.208;8.806;2023-05-07T05:06:39;15.70;99.90
2050;DHT22;8478;49.208;8.806;2023-05-07T05:09:04;15.70;99.90
2050;DHT22;8478;49.208;8.806;2023-05-07T05:11:31;15.70;99.90
2050;DHT22;8478;49.208;8.806;2023-05-07T05:13:58;15.70;99.90
2050;DHT22;8478;49.208;8.806;2023-05-07T05:16:24;15.70;99.90
2050;DHT22;8478;49.208;8.806;2023-05-07T05:18:50;15.70;99.90
2050;DHT22;8478;49.208;8.806;2023-05-07T05:21:17;15.70;99.90
2050;DHT22;8478;49.208;8.806;2023-05-07T05:23:43;15.70;99.90
2050;DHT22;8478;49.208;8.806;2023-05-07T05:26:09;15.60;99.90
2050;DHT22;8478;49.208;8.806;2023-05-07T05:28:34;15.70;99.90
2050;DHT22;8478;49.208;8.806;2023-05-07T05:31:00;15.70;99.90
2050;DHT22;8478;49.208;8.806;2023-05-07T05:33:26;15.70;99.90
2050;DHT22;8478;49.208;8.806;2023-05-07T05:35:51;15.70;99.90
2050;DHT22;8478;49.208;8.806;2023-05-07T05:38:17;15.70;99.90
2050;DHT22;8478;49.208;8.806;2023-05-07T05:40:43;15.60;99.90
2050;DHT22;8478;49.208;8.806;2023-05-07T05:43:08;15.60;99.90
2050;DHT22;8478;49.208;8.806;2023-05-07T05:45:34;15.60;99.90
2050;DHT22;8478;49.208;8.806;2023-05-07T05:48:00;15.70;99.90
2050;DHT22;8478;49.208;8.806;2023-05-07T05:50:26;15.70;99.90
2050;DHT22;8478;49.208;8.806;2023-05-07T05:52:51;15.70;99.90
2050;DHT22;8478;49.208;8.806;2023-05-07T05:55:17;15.60;99.90
2050;DHT22;8478;49.208;8.806;2023-05-07T05:57:43;15.60;99.90
2050;DHT22;8478;49.208;8.806;2023-05-07T06:00:09;15.60;99.90
2050;DHT22;8478;49.208;8.806;2023-05-07T06:02:35;15.70;99.90
2050;DHT22;8478;49.208;8.806;2023-05-07T06:05:00;15.70;99.90
2050;DHT22;8478;49.208;8.806;2023-05-07T06:07:26;15.60;99.90
2050;DHT22;8478;49.208;8.806;2023-05-07T06:09:52;15.60;99.90
2050;DHT22;8478;49.208;8.806;2023-05-07T06:12:17;15.60;99.90
2050;DHT22;8478;49.208;8.806;2023-05-07T06:14:43;15.60;99.90
2050;DHT22;8478;49.208;8.806;2023-05-07T06:17:09;15.60;99.90
2050;DHT22;8478;49.208;8.806;2023-05-07T06:19:35;15.70;99.90
2050;DHT22;8478;49.208;8.806;2023-05-07T06:22:01;15.60;99.90
2050;DHT22;8478;49.208;8.806;2023-05-07T06:24:28;15.70;99.90
2050;DHT22;8478;49.208;8.806;2023-05-07T06:26:54;15.70;99.90
2050;DHT22;8478;49.208;8.806;2023-05-07T06:29:19;15.70;99.90
2050;DHT22;8478;49.208;8.806;2023-05-07T06:31:45;15.70;99.90
2050;DHT22;8478;49.208;8.806;2023-05-07T06:34:11;15.70;99.90
2050;DHT22;8478;49.208;8.806;2023-05-07T06:36:40;15.60;99.90
2050;DHT22;8478;49.208;8.806;2023-05-07T06:39:06;15.70;99.90
2050;DHT22;8478;49.208;8.806;2023-05-07T06:41:32;15.70;99.90
2050;DHT22;8478;49.208;8.806;2023-05-07T06:43:57;15.60;99.90
2050;DHT22;8478;49.208;8.806;2023-05-07T06:46:23;15.60;99.90
2050;DHT22;8478;49.208;8.806;2023-05-07T06:48:49;15.60;99.90
2050;DHT22;8478;49.208;8.806;2023-05-07T06:51:14;15.60;99.90
2050;DHT22;8478;49.208;8.806;2023-05-07T06:53:40;15.70;99.90
2050;DHT22;8478;49.208;8.806;2023-05-07T06:56:06;15.70;99.90
2050;DHT22;8478;49.208;8.806;2023-05-07T06:58:31;15.60;99.90
2050;DHT22;8478;49.208;8.806;2023-05-07T07:00:57;15.60;99.90
2050;DHT22;8478;49.208;8.806;2023-05-07T07:03:23;15.70;99.90
2050;DHT22;8478;49.208;8.806;2023-05-07T07:05:52;15.60;99.90
2050;DHT22;8478;49.208;8.806;2023-05-07T07:08:18;15.70;99.90
2050;DHT22;8478;49.208;8.806;2023-05-07T07:10:46;15.70;99.90
2050;DHT22;8478;49.208;8.806;2023-05-07T07:13:12;15.70;99.90
2050;DHT22;8478;49.208;8.806;2023-05-07T07:15:38;15.70;99.90
2050;DHT22;8478;49.208;8.806;2023-05-07T07:18:04;15.70;99.90
2050;DHT22;8478;49.208;8.806;2023-05-07T07:20:30;15.70;99.90
2050;DHT22;8478;49.208;8.806;2023-05-07T07:22:55;15.70;99.90
2050;DHT22;8478;49.208;8.806;2023-05-07T07:25:21;15.70;99.90
2050;DHT22;8478;49.208;8.806;2023-05-07T07:27:47;15.70;99.90
2050;DHT22;8478;49.208;8.806;2023-05-07T07:30:12;15.70;99.90
2050;DHT22;8478;49.208;8.806;2023-05-07T07:32:38;15.70;99.90
2050;DHT22;8478;49.208;8.806;2023-05-07T07:35:04;15.70;99.90
2050;DHT22;8478;49.208;8.806;2023-05-07T07:37:30;15.70;99.90
2050;DHT22;8478;49.208;8.806;2023-05-07T07:39:56;15.70;99.90
2050;DHT22;8478;49.208;8.806;2023-05-07T07:42:21;15.70;99.90
2050;DHT22;8478;49.208;8.806;2023-05-07T07:44:48;15.70;99.90
2050;DHT22;8478;49.208;8.806;2023-05-07T07:47:13;15.70;99.90
2050;DHT22;8478;49.208;8.806;2023-05-07T07:49:39;15.70;99.90
2050;DHT22;8478;49.208;8.806;2023-05-07T07:52:05;15.70;99.90
2050;DHT22;8478;49.208;8.806;2023-05-07T07:54:30;15.70;99.90
2050;DHT22;8478;49.208;8.806;2023-05-07T07:56:56;15.70;99.90
2050;DHT22;8478;49.208;8.806;2023-05-07T07:59:22;15.70;99.90
2050;DHT22;8478;49.208;8.806;2023-05-07T08:01:47;15.70;99.90
2050;DHT22;8478;49.208;8.806;2023-05-07T08:04:15;15.70;99.90
2050;DHT22;8478;49.208;8.806;2023-05-07T08:06:41;15.70;99.90
2050;DHT22;8478;49.208;8.806;2023-05-07T08:09:07;15.70;99.90
2050;DHT22;8478;49.208;8.806;2023-05-07T08:11:33;15.70;99.90
2050;DHT22;8478;49.208;8.806;2023-05-07T08:13:59;15.70;99.90
2050;DHT22;8478;49.208;8.806;2023-05-07T08:16:25;15.70;99.90
2050;DHT22;8478;49.208;8.806;2023-05-07T08:18:51;15.70;99.90
2050;DHT22;8478;49.208;8.806;2023-05-07T08:21:17;15.70;99.90
2050;DHT22;8478;49.208;8.806;2023-05-07T08:23:42;15.80;99.90
2050;DHT22;8478;49.208;8.806;2023-05-07T08:26:08;15.70;99.90
2050;DHT22;8478;49.208;8.806;2023-05-07T08:28:34;15.80;99.90
2050;DHT22;8478;49.208;8.806;2023-05-07T08:31:00;15.80;99.90
2050;DHT22;8478;49.208;8.806;2023-05-07T08:33:26;15.80;99.90
2050;DHT22;8478;49.208;8.806;2023-05-07T08:35:52;15.80;99.90
2050;DHT22;8478;49.208;8.806;2023-05-07T08:38:18;15.80;99.90
2050;DHT22;8478;49.208;8.806;2023-05-07T08:40:44;15.80;99.90
2050;DHT22;8478;49.208;8.806;2023-05-07T08:43:13;15.80;99.90
2050;DHT22;8478;49.208;8.806;2023-05-07T08:45:40;15.80;99.90
2050;DHT22;8478;49.208;8.806;2023-05-07T08:48:14;15.80;99.90
2050;DHT22;8478;49.208;8.806;2023-05-07T08:50:40;15.80;99.90
2050;DHT22;8478;49.208;8.806;2023-05-07T08:53:06;15.80;99.90
2050;DHT22;8478;49.208;8.806;2023-05-07T08:55:32;15.80;99.90
2050;DHT22;8478;49.208;8.806;2023-05-07T08:57:59;15.80;99.90
2050;DHT22;8478;49.208;8.806;2023-05-07T09:00:25;15.80;99.90
2050;DHT22;8478;49.208;8.806;2023-05-07T09:02:53;15.80;99.90
2050;DHT22;8478;49.208;8.806;2023-05-07T09:05:19;15.80;99.90
2050;DHT22;8478;49.208;8.806;2023-05-07T09:07:45;15.80;99.90
2050;DHT22;8478;49.208;8.806;2023-05-07T09:10:12;15.80;99.90
2050;DHT22;8478;49.208;8.806;2023-05-07T09:12:39;15.80;99.90
2050;DHT22;8478;49.208;8.806;2023-05-07T09:15:05;15.80;99.90
2050;DHT22;8478;49.208;8.806;2023-05-07T09:17:31;15.80;99.90
2050;DHT22;8478;49.208;8.806;2023-05-07T09:20:03;15.80;99.90
2050;DHT22;8478;49.208;8.806;2023-05-07T09:22:32;15.90;99.90
2050;DHT22;8478;49.208;8.806;2023-05-07T09:24:58;15.90;99.90
2050;DHT22;8478;49.208;8.806;2023-05-07T09:27:25;15.90;99.90
2050;DHT22;8478;49.208;8.806;2023-05-07T09:29:51;15.90;99.90
2050;DHT22;8478;49.208;8.806;2023-05-07T09:32:16;15.90;99.90
2050;DHT22;8478;49.208;8.806;2023-05-07T09:34:42;15.90;99.90
2050;DHT22;8478;49.208;8.806;2023-05-07T09:37:08;15.90;99.90
2050;DHT22;8478;49.208;8.806;2023-05-07T09:39:41;15.90;99.90
2050;DHT22;8478;49.208;8.806;2023-05-07T09:42:07;15.90;99.90
2050;DHT22;8478;49.208;8.806;2023-05-07T09:44:34;15.90;99.90
2050;DHT22;8478;49.208;8.806;2023-05-07T09:47:02;15.90;99.90
2050;DHT22;8478;49.208;8.806;2023-05-07T09:49:30;15.90;99.90
2050;DHT22;8478;49.208;8.806;2023-05-07T09:52:00;15.90;99.90
2050;DHT22;8478;49.208;8.806;2023-05-07T09:54:26;15.90;99.90
2050;DHT22;8478;49.208;8.806;2023-05-07T09:56:55;15.90;99.90
2050;DHT22;8478;49.208;8.806;2023-05-07T09:59:21;15.90;99.90
2050;DHT22;8478;49.208;8.806;2023-05-07T10:01:48;15.90;99.90
2050;DHT22;8478;49.208;8.806;2023-05-07T10:04:14;16.00;99.90
2050;DHT22;8478;49.208;8.806;2023-05-07T10:06:40;16.00;99.90
2050;DHT22;8478;49.208;8.806;2023-05-07T10:09:06;16.20;99.90
2050;DHT22;8478;49.208;8.806;2023-05-07T10:11:34;16.40;99.90
2050;DHT22;8478;49.208;8.806;2023-05-07T10:14:03;16.30;99.90
2050;DHT22;8478;49.208;8.806;2023-05-07T10:16:32;16.30;99.90
2050;DHT22;8478;49.208;8.806;2023-05-07T10:19:05;16.20;99.90
2050;DHT22;8478;49.208;8.806;2023-05-07T10:21:36;16.20;99.90
2050;DHT22;8478;49.208;8.806;2023-05-07T10:24:09;16.10;99.90
2050;DHT22;8478;49.208;8.806;2023-05-07T10:26:42;16.10;99.90
2050;DHT22;8478;49.208;8.806;2023-05-07T10:29:14;16.10;99.90
2050;DHT22;8478;49.208;8.806;2023-05-07T10:37:17;16.60;99.90
2050;DHT22;8478;49.208;8.806;2023-05-07T10:39:43;16.50;99.90
2050;DHT22;8478;49.208;8.806;2023-05-07T10:42:10;16.40;99.90
2050;DHT22;8478;49.208;8.806;2023-05-07T10:44:36;16.30;99.90
2050;DHT22;8478;49.208;8.806;2023-05-07T10:47:14;16.30;99.90
2050;DHT22;8478;49.208;8.806;2023-05-07T10:50:19;16.20;99.90
2050;DHT22;8478;49.208;8.806;2023-05-07T10:52:32;16.20;99.90
2050;DHT22;8478;49.208;8.806;2023-05-07T10:57:46;16.20;99.90
2050;DHT22;8478;49.208;8.806;2023-05-07T11:05:30;16.20;99.90
2050;DHT22;8478;49.208;8.806;2023-05-07T11:07:57;16.20;99.90
2050;DHT22;8478;49.208;8.806;2023-05-07T11:10:23;16.20;99.90
2050;DHT22;8478;49.208;8.806;2023-05-07T11:12:50;16.20;99.90
2050;DHT22;8478;49.208;8.806;2023-05-07T11:15:43;16.20;99.90
2050;DHT22;8478;49.208;8.806;2023-05-07T11:18:11;16.20;99.90
2050;DHT22;8478;49.208;8.806;2023-05-07T11:20:56;16.20;99.90
2050;DHT22;8478;49.208;8.806;2023-05-07T11:26:03;16.20;99.90
2050;DHT22;8478;49.208;8.806;2023-05-07T11:28:30;16.20;99.90
2050;DHT22;8478;49.208;8.806;2023-05-07T11:30:57;16.20;99.90
2050;DHT22;8478;49.208;8.806;2023-05-07T11:33:23;16.20;99.90
2050;DHT22;8478;49.208;8.806;2023-05-07T11:35:52;16.20;99.90
2050;DHT22;8478;49.208;8.806;2023-05-07T11:38:19;16.30;99.90
2050;DHT22;8478;49.208;8.806;2023-05-07T11:40:58;16.30;99.90
2050;DHT22;8478;49.208;8.806;2023-05-07T11:43:26;16.30;99.90
2050;DHT22;8478;49.208;8.806;2023-05-07T11:45:52;16.30;99.90
2050;DHT22;8478;49.208;8.806;2023-05-07T11:48:18;16.30;99.90
2050;DHT22;8478;49.208;8.806;2023-05-07T11:50:54;16.30;99.90
2050;DHT22;8478;49.208;8.806;2023-05-07T11:53:20;16.30;99.90
2050;DHT22;8478;49.208;8.806;2023-05-07T11:55:55;16.30;99.90
2050;DHT22;8478;49.208;8.806;2023-05-07T11:58:23;16.30;99.90
2050;DHT22;8478;49.208;8.806;2023-05-07T12:00:50;16.30;99.90
2050;DHT22;8478;49.208;8.806;2023-05-07T12:03:16;16.30;99.90
2050;DHT22;8478;49.208;8.806;2023-05-07T12:05:43;16.30;99.90
2050;DHT22;8478;49.208;8.806;2023-05-07T12:08:14;16.30;99.90
2050;DHT22;8478;49.208;8.806;2023-05-07T12:10:43;16.30;99.90
2050;DHT22;8478;49.208;8.806;2023-05-07T12:13:19;16.30;99.90
2050;DHT22;8478;49.208;8.806;2023-05-07T12:15:45;16.30;99.90
2050;DHT22;8478;49.208;8.806;2023-05-07T12:18:13;16.30;99.90
2050;DHT22;8478;49.208;8.806;2023-05-07T12:20:40;16.30;99.90
2050;DHT22;8478;49.208;8.806;2023-05-07T12:23:06;16.30;99.90
2050;DHT22;8478;49.208;8.806;2023-05-07T12:25:34;16.40;99.90
2050;DHT22;8478;49.208;8.806;2023-05-07T12:28:04;16.40;99.90
2050;DHT22;8478;49.208;8.806;2023-05-07T12:30:37;16.40;99.90
2050;DHT22;8478;49.208;8.806;2023-05-07T12:33:03;16.30;99.90
2050;DHT22;8478;49.208;8.806;2023-05-07T12:35:29;16.30;99.90
2050;DHT22;8478;49.208;8.806;2023-05-07T12:37:56;16.40;99.90
2050;DHT22;8478;49.208;8.806;2023-05-07T12:40:24;16.40;99.90
2050;DHT22;8478;49.208;8.806;2023-05-07T12:42:53;16.40;99.90
2050;DHT22;8478;49.208;8.806;2023-05-07T12:45:20;16.40;99.90
2050;DHT22;8478;49.208;8.806;2023-05-07T12:47:46;16.40;99.90
2050;DHT22;8478;49.208;8.806;2023-05-07T12:50:16;16.40;99.90
2050;DHT22;8478;49.208;8.806;2023-05-07T12:52:43;16.40;99.90
2050;DHT22;8478;49.208;8.806;2023-05-07T12:55:13;16.40;99.90
2050;DHT22;8478;49.208;8.806;2023-05-07T12:57:43;16.40;99.90
2050;DHT22;8478;49.208;8.806;2023-05-07T13:00:09;16.40;99.90
2050;DHT22;8478;49.208;8.806;2023-05-07T13:02:41;16.40;99.90
2050;DHT22;8478;49.208;8.806;2023-05-07T13:05:07;16.40;99.90
2050;DHT22;8478;49.208;8.806;2023-05-07T13:07:33;16.40;99.90
2050;DHT22;8478;49.208;8.806;2023-05-07T13:09:59;16.40;99.90
2050;DHT22;8478;49.208;8.806;2023-05-07T13:12:25;16.40;99.90
2050;DHT22;8478;49.208;8.806;2023-05-07T13:14:50;16.40;99.90
2050;DHT22;8478;49.208;8.806;2023-05-07T13:17:16;16.40;99.90
2050;DHT22;8478;49.208;8.806;2023-05-07T13:19:42;16.40;99.90
2050;DHT22;8478;49.208;8.806;2023-05-07T13:22:07;16.40;99.90
2050;DHT22;8478;49.208;8.806;2023-05-07T13:24:33;16.40;99.90
2050;DHT22;8478;49.208;8.806;2023-05-07T13:26:59;16.40;99.90
2050;DHT22;8478;49.208;8.806;2023-05-07T13:29:24;16.50;99.90
2050;DHT22;8478;49.208;8.806;2023-05-07T13:31:54;16.50;99.90
2050;DHT22;8478;49.208;8.806;2023-05-07T13:34:20;16.50;99.90
2050;DHT22;8478;49.208;8.806;2023-05-07T13:36:46;16.50;99.90
2050;DHT22;8478;49.208;8.806;2023-05-07T13:39:12;16.70;99.90
2050;DHT22;8478;49.208;8.806;2023-05-07T13:41:37;17.00;99.90
2050;DHT22;8478;49.208;8.806;2023-05-07T13:44:03;17.20;99.90
2050;DHT22;8478;49.208;8.806;2023-05-07T13:46:29;17.30;99.90
2050;DHT22;8478;49.208;8.806;2023-05-07T13:48:55;17.50;99.90
2050;DHT22;8478;49.208;8.806;2023-05-07T13:51:21;17.60;99.90
2050;DHT22;8478;49.208;8.806;2023-05-07T13:53:47;17.70;99.90
2050;DHT22;8478;49.208;8.806;2023-05-07T13:56:13;17.60;99.90
2050;DHT22;8478;49.208;8.806;2023-05-07T13:58:39;17.30;99.90
2050;DHT22;8478;49.208;8.806;2023-05-07T14:01:05;17.20;99.90
2050;DHT22;8478;49.208;8.806;2023-05-07T14:03:31;17.10;99.90
2050;DHT22;8478;49.208;8.806;2023-05-07T14:05:59;17.00;99.90
2050;DHT22;8478;49.208;8.806;2023-05-07T14:08:25;17.00;99.90
2050;DHT22;8478;49.208;8.806;2023-05-07T14:10:51;17.00;99.90
2050;DHT22;8478;49.208;8.806;2023-05-07T14:13:17;16.90;99.90
2050;DHT22;8478;49.208;8.806;2023-05-07T14:15:43;16.90;99.90
2050;DHT22;8478;49.208;8.806;2023-05-07T14:18:12;16.90;99.90
2050;DHT22;8478;49.208;8.806;2023-05-07T14:20:38;16.90;99.90
2050;DHT22;8478;49.208;8.806;2023-05-07T14:23:04;16.90;99.90
2050;DHT22;8478;49.208;8.806;2023-05-07T14:25:30;16.90;99.90
2050;DHT22;8478;49.208;8.806;2023-05-07T14:27:55;16.90;99.90
2050;DHT22;8478;49.208;8.806;2023-05-07T14:30:21;16.80;99.90
2050;DHT22;8478;49.208;8.806;2023-05-07T14:32:50;16.80;99.90
2050;DHT22;8478;49.208;8.806;2023-05-07T14:35:16;16.80;99.90
2050;DHT22;8478;49.208;8.806;2023-05-07T14:37:42;16.80;99.90
2050;DHT22;8478;49.208;8.806;2023-05-07T14:40:09;16.80;99.90
2050;DHT22;8478;49.208;8.806;2023-05-07T14:42:35;16.80;99.90
2050;DHT22;8478;49.208;8.806;2023-05-07T14:45:01;16.80;99.90
2050;DHT22;8478;49.208;8.806;2023-05-07T14:47:26;16.80;99.90
2050;DHT22;8478;49.208;8.806;2023-05-07T14:49:52;16.80;99.90
2050;DHT22;8478;49.208;8.806;2023-05-07T14:52:18;16.70;99.90
2050;DHT22;8478;49.208;8.806;2023-05-07T14:54:44;16.80;99.90
2050;DHT22;8478;49.208;8.806;2023-05-07T14:57:11;16.70;99.90
2050;DHT22;8478;49.208;8.806;2023-05-07T14:59:41;16.80;99.90
2050;DHT22;8478;49.208;8.806;2023-05-07T15:02:07;16.80;99.90
2050;DHT22;8478;49.208;8.806;2023-05-07T15:04:34;16.70;99.90
2050;DHT22;8478;49.208;8.806;2023-05-07T15:06:59;16.70;99.90
2050;DHT22;8478;49.208;8.806;2023-05-07T15:09:26;16.70;99.90
2050;DHT22;8478;49.208;8.806;2023-05-07T15:11:51;16.70;99.90
2050;DHT22;8478;49.208;8.806;2023-05-07T15:14:17;16.70;99.90
2050;DHT22;8478;49.208;8.806;2023-05-07T15:16:43;16.70;99.90
2050;DHT22;8478;49.208;8.806;2023-05-07T15:19:09;16.70;99.90
2050;DHT22;8478;49.208;8.806;2023-05-07T15:21:35;16.70;99.90
2050;DHT22;8478;49.208;8.806;2023-05-07T15:24:04;16.70;99.90
2050;DHT22;8478;49.208;8.806;2023-05-07T15:26:30;16.70;99.90
2050;DHT22;8478;49.208;8.806;2023-05-07T15:28:56;16.70;99.90
2050;DHT22;8478;49.208;8.806;2023-05-07T15:31:23;16.70;99.90
2050;DHT22;8478;49.208;8.806;2023-05-07T15:33:49;16.70;99.90
2050;DHT22;8478;49.208;8.806;2023-05-07T15:36:17;16.70;99.90
2050;DHT22;8478;49.208;8.806;2023-05-07T15:38:43;16.70;99.90
2050;DHT22;8478;49.208;8.806;2023-05-07T15:41:09;16.70;99.90
2050;DHT22;8478;49.208;8.806;2023-05-07T15:43:44;16.70;99.90
2050;DHT22;8478;49.208;8.806;2023-05-07T15:46:11;16.60;99.90
2050;DHT22;8478;49.208;8.806;2023-05-07T15:48:36;16.60;99.90
2050;DHT22;8478;49.208;8.806;2023-05-07T15:51:02;16.70;99.90
2050;DHT22;8478;49.208;8.806;2023-05-07T15:53:28;16.70;99.90
2050;DHT22;8478;49.208;8.806;2023-05-07T15:55:53;16.70;99.90
2050;DHT22;8478;49.208;8.806;2023-05-07T15:58:19;16.70;99.90
2050;DHT22;8478;49.208;8.806;2023-05-07T16:00:45;16.60;99.90
2050;DHT22;8478;49.208;8.806;2023-05-07T16:03:11;16.60;99.90
2050;DHT22;8478;49.208;8.806;2023-05-07T16:05:36;16.60;99.90
2050;DHT22;8478;49.208;8.806;2023-05-07T16:08:02;16.60;99.90
2050;DHT22;8478;49.208;8.806;2023-05-07T16:10:29;16.60;99.90
2050;DHT22;8478;49.208;8.806;2023-05-07T16:12:55;16.60;99.90
2050;DHT22;8478;49.208;8.806;2023-05-07T16:15:20;16.60;99.90
2050;DHT22;8478;49.208;8.806;2023-05-07T16:17:47;16.60;99.90